Bradley Beach, New Jersey
Current Conditions -  °F | °C
As of 12:55 PM on Monday 24 Nov 2014 (Local Time) from KBLM Reporting Station
Broken Clouds Broken Clouds  
Wind Chill: 72°   Ceiling: 2900
Heat Index: 72°   Visibility: 10mi
Dew Point: 59°   Wind: 15mph
Humidity: 64%   Direction: 200°SSW
Pressure: 29.63"   Gusts: 24mph
Location:  40.2°N, 74.01°W
Report Text: KBLM 241755Z AUTO 20013G21KT 10SM FEW021 BKN029 22/15 A2963 RMK AO1 60001 10220 20160 57024
Loading
Personal Weather Stations






























Interactive Weather Map New forecast layout! Learn more

10-Day Weather Forecast

Advertisements
Track Severe Weather on mobile